sensor_id;sensor_type;location;lat;lon;timestamp;temperature;humidity
35607;DHT22;21729;58.392;15.656;2023-02-01T00:02:21;0.70;17.10
35607;DHT22;21729;58.392;15.656;2023-02-01T00:04:48;0.70;20.10
35607;DHT22;21729;58.392;15.656;2023-02-01T00:07:15;0.70;21.90
35607;DHT22;21729;58.392;15.656;2023-02-01T00:09:43;0.70;28.40
35607;DHT22;21729;58.392;15.656;2023-02-01T00:12:10;0.70;29.40
35607;DHT22;21729;58.392;15.656;2023-02-01T00:14:38;0.70;32.50
35607;DHT22;21729;58.392;15.656;2023-02-01T00:17:06;0.70;33.70
35607;DHT22;21729;58.392;15.656;2023-02-01T00:19:33;0.70;34.30
35607;DHT22;21729;58.392;15.656;2023-02-01T00:22:01;0.70;42.40
35607;DHT22;21729;58.392;15.656;2023-02-01T00:24:28;0.70;42.20
35607;DHT22;21729;58.392;15.656;2023-02-01T00:26:55;0.70;45.30
35607;DHT22;21729;58.392;15.656;2023-02-01T00:29:22;0.70;44.60
35607;DHT22;21729;58.392;15.656;2023-02-01T00:31:51;0.80;48.00
35607;DHT22;21729;58.392;15.656;2023-02-01T00:34:19;0.60;54.90
35607;DHT22;21729;58.392;15.656;2023-02-01T00:36:47;0.70;68.90
35607;DHT22;21729;58.392;15.656;2023-02-01T00:39:14;0.60;63.70
35607;DHT22;21729;58.392;15.656;2023-02-01T00:41:41;0.60;71.60
35607;DHT22;21729;58.392;15.656;2023-02-01T00:44:09;0.70;81.80
35607;DHT22;21729;58.392;15.656;2023-02-01T00:46:36;0.70;86.20
35607;DHT22;21729;58.392;15.656;2023-02-01T00:49:05;0.60;86.90
35607;DHT22;21729;58.392;15.656;2023-02-01T00:51:33;0.50;90.30
35607;DHT22;21729;58.392;15.656;2023-02-01T00:54:00;0.60;97.90
35607;DHT22;21729;58.392;15.656;2023-02-01T00:56:29;0.60;99.90
35607;DHT22;21729;58.392;15.656;2023-02-01T00:58:56;0.70;99.90
35607;DHT22;21729;58.392;15.656;2023-02-01T01:01:25;0.60;99.90
35607;DHT22;21729;58.392;15.656;2023-02-01T01:03:54;0.70;99.90
35607;DHT22;21729;58.392;15.656;2023-02-01T01:06:25;0.80;99.90
35607;DHT22;21729;58.392;15.656;2023-02-01T01:08:52;0.70;99.90
35607;DHT22;21729;58.392;15.656;2023-02-01T01:11:22;0.70;99.90
35607;DHT22;21729;58.392;15.656;2023-02-01T01:13:51;0.70;99.90
35607;DHT22;21729;58.392;15.656;2023-02-01T01:16:19;0.70;99.90
35607;DHT22;21729;58.392;15.656;2023-02-01T01:18:46;0.70;99.90
35607;DHT22;21729;58.392;15.656;2023-02-01T01:21:15;0.70;99.90
35607;DHT22;21729;58.392;15.656;2023-02-01T01:23:44;0.70;99.90
35607;DHT22;21729;58.392;15.656;2023-02-01T01:26:14;0.70;99.90
35607;DHT22;21729;58.392;15.656;2023-02-01T01:28:41;0.70;99.90
35607;DHT22;21729;58.392;15.656;2023-02-01T01:31:09;0.70;99.90
35607;DHT22;21729;58.392;15.656;2023-02-01T01:33:36;0.70;99.90
35607;DHT22;21729;58.392;15.656;2023-02-01T01:36:05;0.70;99.90
35607;DHT22;21729;58.392;15.656;2023-02-01T01:38:32;0.70;99.90
35607;DHT22;21729;58.392;15.656;2023-02-01T01:41:00;0.80;99.90
35607;DHT22;21729;58.392;15.656;2023-02-01T01:43:46;0.80;99.90
35607;DHT22;21729;58.392;15.656;2023-02-01T01:46:16;0.90;99.90
35607;DHT22;21729;58.392;15.656;2023-02-01T01:48:44;0.80;99.90
35607;DHT22;21729;58.392;15.656;2023-02-01T01:51:13;0.80;99.90
35607;DHT22;21729;58.392;15.656;2023-02-01T01:53:45;0.80;99.90
35607;DHT22;21729;58.392;15.656;2023-02-01T01:56:14;0.80;99.90
35607;DHT22;21729;58.392;15.656;2023-02-01T01:58:41;0.90;99.90
35607;DHT22;21729;58.392;15.656;2023-02-01T02:01:09;1.00;98.00
35607;DHT22;21729;58.392;15.656;2023-02-01T02:03:39;1.00;75.40
35607;DHT22;21729;58.392;15.656;2023-02-01T02:06:12;1.00;54.60
35607;DHT22;21729;58.392;15.656;2023-02-01T02:08:42;1.00;42.30
35607;DHT22;21729;58.392;15.656;2023-02-01T02:11:14;1.00;34.90
35607;DHT22;21729;58.392;15.656;2023-02-01T02:13:45;0.90;39.30
35607;DHT22;21729;58.392;15.656;2023-02-01T02:16:33;1.00;35.60
35607;DHT22;21729;58.392;15.656;2023-02-01T02:19:29;0.90;31.70
35607;DHT22;21729;58.392;15.656;2023-02-01T02:22:12;0.90;37.90
35607;DHT22;21729;58.392;15.656;2023-02-01T02:25:16;0.90;41.20
35607;DHT22;21729;58.392;15.656;2023-02-01T02:27:52;0.90;52.00
35607;DHT22;21729;58.392;15.656;2023-02-01T02:30:41;0.90;48.60
35607;DHT22;21729;58.392;15.656;2023-02-01T02:36:17;1.00;57.70
35607;DHT22;21729;58.392;15.656;2023-02-01T02:38:52;1.00;57.60
35607;DHT22;21729;58.392;15.656;2023-02-01T02:41:26;1.00;58.10
35607;DHT22;21729;58.392;15.656;2023-02-01T02:44:24;1.00;58.30
35607;DHT22;21729;58.392;15.656;2023-02-01T02:47:17;1.00;64.90
35607;DHT22;21729;58.392;15.656;2023-02-01T02:50:05;1.00;59.80
35607;DHT22;21729;58.392;15.656;2023-02-01T02:52:57;1.00;63.40
35607;DHT22;21729;58.392;15.656;2023-02-01T02:55:40;1.00;64.90
35607;DHT22;21729;58.392;15.656;2023-02-01T02:58:08;1.00;65.00
35607;DHT22;21729;58.392;15.656;2023-02-01T03:00:55;1.00;67.30
35607;DHT22;21729;58.392;15.656;2023-02-01T03:03:41;0.90;58.40
35607;DHT22;21729;58.392;15.656;2023-02-01T03:06:28;0.90;76.20
35607;DHT22;21729;58.392;15.656;2023-02-01T03:08:57;0.90;75.80
35607;DHT22;21729;58.392;15.656;2023-02-01T03:11:25;0.90;80.80
35607;DHT22;21729;58.392;15.656;2023-02-01T03:14:15;0.90;82.40
35607;DHT22;21729;58.392;15.656;2023-02-01T03:16:45;0.90;83.60
35607;DHT22;21729;58.392;15.656;2023-02-01T03:19:17;0.90;89.50
35607;DHT22;21729;58.392;15.656;2023-02-01T03:21:50;0.90;87.70
35607;DHT22;21729;58.392;15.656;2023-02-01T03:24:23;1.00;92.40
35607;DHT22;21729;58.392;15.656;2023-02-01T03:27:03;1.00;97.60
35607;DHT22;21729;58.392;15.656;2023-02-01T03:29:38;1.00;94.20
35607;DHT22;21729;58.392;15.656;2023-02-01T03:32:07;1.00;99.90
35607;DHT22;21729;58.392;15.656;2023-02-01T03:34:36;1.00;95.10
35607;DHT22;21729;58.392;15.656;2023-02-01T03:37:08;1.00;95.10
35607;DHT22;21729;58.392;15.656;2023-02-01T03:39:39;1.00;99.40
35607;DHT22;21729;58.392;15.656;2023-02-01T03:42:12;1.10;99.90
35607;DHT22;21729;58.392;15.656;2023-02-01T03:44:46;1.10;99.90
35607;DHT22;21729;58.392;15.656;2023-02-01T03:47:19;1.10;99.90
35607;DHT22;21729;58.392;15.656;2023-02-01T03:49:51;1.10;99.90
35607;DHT22;21729;58.392;15.656;2023-02-01T03:52:24;1.10;99.90
35607;DHT22;21729;58.392;15.656;2023-02-01T03:54:52;1.10;99.90
35607;DHT22;21729;58.392;15.656;2023-02-01T03:57:32;1.10;99.90
35607;DHT22;21729;58.392;15.656;2023-02-01T04:00:05;1.10;99.90
35607;DHT22;21729;58.392;15.656;2023-02-01T04:02:34;1.10;99.90
35607;DHT22;21729;58.392;15.656;2023-02-01T04:05:01;1.00;99.90
35607;DHT22;21729;58.392;15.656;2023-02-01T04:07:30;1.00;99.90
35607;DHT22;21729;58.392;15.656;2023-02-01T04:09:57;1.00;99.90
35607;DHT22;21729;58.392;15.656;2023-02-01T04:12:24;1.00;99.90
35607;DHT22;21729;58.392;15.656;2023-02-01T04:14:51;1.00;99.90
35607;DHT22;21729;58.392;15.656;2023-02-01T04:17:18;1.10;99.90
35607;DHT22;21729;58.392;15.656;2023-02-01T04:19:45;1.10;99.90
35607;DHT22;21729;58.392;15.656;2023-02-01T04:22:13;1.10;99.90
35607;DHT22;21729;58.392;15.656;2023-02-01T04:24:41;1.10;99.90
35607;DHT22;21729;58.392;15.656;2023-02-01T04:27:08;1.10;99.90
35607;DHT22;21729;58.392;15.656;2023-02-01T04:29:35;1.10;99.90
35607;DHT22;21729;58.392;15.656;2023-02-01T04:32:03;1.10;99.90
35607;DHT22;21729;58.392;15.656;2023-02-01T04:34:30;1.10;99.90
35607;DHT22;21729;58.392;15.656;2023-02-01T04:36:57;1.10;99.90
35607;DHT22;21729;58.392;15.656;2023-02-01T04:39:24;1.10;99.90
35607;DHT22;21729;58.392;15.656;2023-02-01T04:41:53;1.10;99.90
35607;DHT22;21729;58.392;15.656;2023-02-01T04:44:20;1.10;99.90
35607;DHT22;21729;58.392;15.656;2023-02-01T04:46:47;1.10;99.90
35607;DHT22;21729;58.392;15.656;2023-02-01T04:49:15;1.10;99.90
35607;DHT22;21729;58.392;15.656;2023-02-01T04:51:42;1.10;99.90
35607;DHT22;21729;58.392;15.656;2023-02-01T04:54:09;1.10;99.90
35607;DHT22;21729;58.392;15.656;2023-02-01T04:56:38;1.10;99.90
35607;DHT22;21729;58.392;15.656;2023-02-01T04:59:07;1.10;99.90
35607;DHT22;21729;58.392;15.656;2023-02-01T05:01:34;1.10;99.90
35607;DHT22;21729;58.392;15.656;2023-02-01T05:04:01;1.10;99.90
35607;DHT22;21729;58.392;15.656;2023-02-01T05:06:28;1.20;99.90
35607;DHT22;21729;58.392;15.656;2023-02-01T05:08:55;1.20;99.90
35607;DHT22;21729;58.392;15.656;2023-02-01T05:11:22;1.20;99.90
35607;DHT22;21729;58.392;15.656;2023-02-01T05:14:07;1.20;99.90
35607;DHT22;21729;58.392;15.656;2023-02-01T05:16:34;1.20;99.90
35607;DHT22;21729;58.392;15.656;2023-02-01T05:19:02;1.20;99.90
35607;DHT22;21729;58.392;15.656;2023-02-01T05:21:29;1.20;99.90
35607;DHT22;21729;58.392;15.656;2023-02-01T05:23:56;1.20;99.90
35607;DHT22;21729;58.392;15.656;2023-02-01T05:26:42;1.20;99.90
35607;DHT22;21729;58.392;15.656;2023-02-01T05:29:11;1.20;99.90
35607;DHT22;21729;58.392;15.656;2023-02-01T05:31:38;1.10;99.90
35607;DHT22;21729;58.392;15.656;2023-02-01T05:34:06;1.10;99.90
35607;DHT22;21729;58.392;15.656;2023-02-01T05:36:33;1.20;99.90
35607;DHT22;21729;58.392;15.656;2023-02-01T05:39:00;1.20;99.90
35607;DHT22;21729;58.392;15.656;2023-02-01T05:41:27;1.20;99.90
35607;DHT22;21729;58.392;15.656;2023-02-01T05:43:55;1.10;99.90
35607;DHT22;21729;58.392;15.656;2023-02-01T05:46:23;1.10;99.90
35607;DHT22;21729;58.392;15.656;2023-02-01T05:48:50;1.00;99.90
35607;DHT22;21729;58.392;15.656;2023-02-01T05:51:18;1.00;99.90
35607;DHT22;21729;58.392;15.656;2023-02-01T05:53:45;1.00;99.90
35607;DHT22;21729;58.392;15.656;2023-02-01T05:56:12;1.00;99.90
35607;DHT22;21729;58.392;15.656;2023-02-01T05:58:39;0.90;99.90
35607;DHT22;21729;58.392;15.656;2023-02-01T06:01:06;0.90;99.90
35607;DHT22;21729;58.392;15.656;2023-02-01T06:03:34;1.00;99.90
35607;DHT22;21729;58.392;15.656;2023-02-01T06:06:02;1.00;99.90
35607;DHT22;21729;58.392;15.656;2023-02-01T06:08:30;1.00;99.90
35607;DHT22;21729;58.392;15.656;2023-02-01T06:11:00;1.00;99.90
35607;DHT22;21729;58.392;15.656;2023-02-01T06:13:27;1.00;99.90
35607;DHT22;21729;58.392;15.656;2023-02-01T06:15:55;1.00;99.90
35607;DHT22;21729;58.392;15.656;2023-02-01T06:18:22;1.00;99.90
35607;DHT22;21729;58.392;15.656;2023-02-01T06:20:54;1.00;99.90
35607;DHT22;21729;58.392;15.656;2023-02-01T06:23:21;1.00;99.90
35607;DHT22;21729;58.392;15.656;2023-02-01T06:25:50;1.00;99.90
35607;DHT22;21729;58.392;15.656;2023-02-01T06:28:17;1.00;99.90
35607;DHT22;21729;58.392;15.656;2023-02-01T06:30:44;1.10;99.90
35607;DHT22;21729;58.392;15.656;2023-02-01T06:33:13;1.10;99.90
35607;DHT22;21729;58.392;15.656;2023-02-01T06:35:41;1.00;99.90
35607;DHT22;21729;58.392;15.656;2023-02-01T06:38:11;1.00;99.90
35607;DHT22;21729;58.392;15.656;2023-02-01T06:40:38;1.10;99.90
35607;DHT22;21729;58.392;15.656;2023-02-01T06:43:05;1.10;99.90
35607;DHT22;21729;58.392;15.656;2023-02-01T06:45:32;1.10;99.90
35607;DHT22;21729;58.392;15.656;2023-02-01T06:47:59;1.10;99.90
35607;DHT22;21729;58.392;15.656;2023-02-01T06:50:27;1.10;99.90
35607;DHT22;21729;58.392;15.656;2023-02-01T06:52:55;1.10;99.90
35607;DHT22;21729;58.392;15.656;2023-02-01T06:55:23;1.10;99.90
35607;DHT22;21729;58.392;15.656;2023-02-01T06:57:53;1.10;99.90
35607;DHT22;21729;58.392;15.656;2023-02-01T07:00:21;1.20;99.90
35607;DHT22;21729;58.392;15.656;2023-02-01T07:02:49;1.20;99.90
35607;DHT22;21729;58.392;15.656;2023-02-01T07:05:17;1.20;99.90
35607;DHT22;21729;58.392;15.656;2023-02-01T07:07:44;1.20;99.90
35607;DHT22;21729;58.392;15.656;2023-02-01T07:10:11;1.30;99.90
35607;DHT22;21729;58.392;15.656;2023-02-01T07:12:40;1.30;99.90
35607;DHT22;21729;58.392;15.656;2023-02-01T07:15:07;1.30;99.90
35607;DHT22;21729;58.392;15.656;2023-02-01T07:17:34;1.30;99.90
35607;DHT22;21729;58.392;15.656;2023-02-01T07:20:01;1.30;99.90
35607;DHT22;21729;58.392;15.656;2023-02-01T07:22:29;1.40;99.90
35607;DHT22;21729;58.392;15.656;2023-02-01T07:24:56;1.40;99.90
35607;DHT22;21729;58.392;15.656;2023-02-01T07:27:23;1.40;99.90
35607;DHT22;21729;58.392;15.656;2023-02-01T07:29:52;1.50;99.90
35607;DHT22;21729;58.392;15.656;2023-02-01T07:32:21;1.50;99.90
35607;DHT22;21729;58.392;15.656;2023-02-01T07:34:48;1.50;99.90
35607;DHT22;21729;58.392;15.656;2023-02-01T07:37:15;1.50;99.90
35607;DHT22;21729;58.392;15.656;2023-02-01T07:39:42;1.50;99.90
35607;DHT22;21729;58.392;15.656;2023-02-01T07:42:09;1.60;99.90
35607;DHT22;21729;58.392;15.656;2023-02-01T07:44:36;1.50;99.90
35607;DHT22;21729;58.392;15.656;2023-02-01T07:47:05;1.50;99.90
35607;DHT22;21729;58.392;15.656;2023-02-01T07:49:32;1.50;99.90
35607;DHT22;21729;58.392;15.656;2023-02-01T07:51:59;1.60;99.90
35607;DHT22;21729;58.392;15.656;2023-02-01T07:54:26;1.60;99.90
35607;DHT22;21729;58.392;15.656;2023-02-01T07:56:53;1.60;99.90
35607;DHT22;21729;58.392;15.656;2023-02-01T07:59:20;1.60;99.90
35607;DHT22;21729;58.392;15.656;2023-02-01T08:01:48;1.70;99.90
35607;DHT22;21729;58.392;15.656;2023-02-01T08:04:15;1.70;99.90
35607;DHT22;21729;58.392;15.656;2023-02-01T08:06:42;1.70;99.90
35607;DHT22;21729;58.392;15.656;2023-02-01T08:09:10;1.70;99.90
35607;DHT22;21729;58.392;15.656;2023-02-01T08:11:38;1.80;99.90
35607;DHT22;21729;58.392;15.656;2023-02-01T08:14:05;1.80;99.90
35607;DHT22;21729;58.392;15.656;2023-02-01T08:16:33;1.80;99.90
35607;DHT22;21729;58.392;15.656;2023-02-01T08:19:02;1.80;99.90
35607;DHT22;21729;58.392;15.656;2023-02-01T08:21:31;1.80;99.90
35607;DHT22;21729;58.392;15.656;2023-02-01T08:24:04;1.90;99.90
35607;DHT22;21729;58.392;15.656;2023-02-01T08:26:32;1.90;99.90
35607;DHT22;21729;58.392;15.656;2023-02-01T08:29:01;1.90;99.90
35607;DHT22;21729;58.392;15.656;2023-02-01T08:31:29;2.00;99.90
35607;DHT22;21729;58.392;15.656;2023-02-01T08:33:59;2.00;99.90
35607;DHT22;21729;58.392;15.656;2023-02-01T08:36:27;2.00;99.90
35607;DHT22;21729;58.392;15.656;2023-02-01T08:38:56;2.10;99.90
35607;DHT22;21729;58.392;15.656;2023-02-01T08:41:26;2.10;99.90
35607;DHT22;21729;58.392;15.656;2023-02-01T08:43:53;2.10;99.90
35607;DHT22;21729;58.392;15.656;2023-02-01T08:46:22;2.20;99.90
35607;DHT22;21729;58.392;15.656;2023-02-01T08:48:49;2.30;99.90
35607;DHT22;21729;58.392;15.656;2023-02-01T08:51:18;2.40;97.80
35607;DHT22;21729;58.392;15.656;2023-02-01T08:53:46;2.40;74.40
35607;DHT22;21729;58.392;15.656;2023-02-01T08:56:16;2.40;77.40
35607;DHT22;21729;58.392;15.656;2023-02-01T08:58:44;2.40;65.00
35607;DHT22;21729;58.392;15.656;2023-02-01T09:01:13;2.40;53.60
35607;DHT22;21729;58.392;15.656;2023-02-01T09:03:41;2.40;66.00
35607;DHT22;21729;58.392;15.656;2023-02-01T09:06:11;2.40;37.30
35607;DHT22;21729;58.392;15.656;2023-02-01T09:08:39;2.50;40.30
35607;DHT22;21729;58.392;15.656;2023-02-01T09:11:08;2.50;35.80
35607;DHT22;21729;58.392;15.656;2023-02-01T09:13:36;2.40;25.10
35607;DHT22;21729;58.392;15.656;2023-02-01T09:16:04;2.50;32.30
35607;DHT22;21729;58.392;15.656;2023-02-01T09:18:31;2.50;20.20
35607;DHT22;21729;58.392;15.656;2023-02-01T09:20:58;2.40;33.70
35607;DHT22;21729;58.392;15.656;2023-02-01T09:23:25;2.50;26.20
35607;DHT22;21729;58.392;15.656;2023-02-01T09:25:52;2.50;31.80
35607;DHT22;21729;58.392;15.656;2023-02-01T09:28:19;2.50;24.80
35607;DHT22;21729;58.392;15.656;2023-02-01T09:30:48;2.50;34.20
35607;DHT22;21729;58.392;15.656;2023-02-01T09:33:15;2.70;23.70
35607;DHT22;21729;58.392;15.656;2023-02-01T09:35:43;2.70;30.50
35607;DHT22;21729;58.392;15.656;2023-02-01T09:38:10;2.70;20.80
35607;DHT22;21729;58.392;15.656;2023-02-01T09:40:42;2.70;10.80
35607;DHT22;21729;58.392;15.656;2023-02-01T09:43:24;2.80;18.60
35607;DHT22;21729;58.392;15.656;2023-02-01T09:46:06;2.70;9.90
35607;DHT22;21729;58.392;15.656;2023-02-01T09:48:39;2.70;11.60
35607;DHT22;21729;58.392;15.656;2023-02-01T09:51:14;2.70;19.00
35607;DHT22;21729;58.392;15.656;2023-02-01T09:53:46;2.80;19.00
35607;DHT22;21729;58.392;15.656;2023-02-01T09:56:18;2.90;12.80
35607;DHT22;21729;58.392;15.656;2023-02-01T09:58:51;2.90;3.70
35607;DHT22;21729;58.392;15.656;2023-02-01T10:01:22;2.90;8.80
35607;DHT22;21729;58.392;15.656;2023-02-01T10:03:52;3.00;1.00
35607;DHT22;21729;58.392;15.656;2023-02-01T10:06:33;3.10;1.00
35607;DHT22;21729;58.392;15.656;2023-02-01T10:09:12;3.20;1.00
35607;DHT22;21729;58.392;15.656;2023-02-01T10:11:47;3.10;1.00
35607;DHT22;21729;58.392;15.656;2023-02-01T10:14:34;3.20;1.00
35607;DHT22;21729;58.392;15.656;2023-02-01T10:17:13;3.20;1.00
35607;DHT22;21729;58.392;15.656;2023-02-01T10:19:54;3.20;1.00
35607;DHT22;21729;58.392;15.656;2023-02-01T10:22:33;3.10;1.00
35607;DHT22;21729;58.392;15.656;2023-02-01T10:25:10;3.10;1.00
35607;DHT22;21729;58.392;15.656;2023-02-01T10:27:39;3.10;1.00
35607;DHT22;21729;58.392;15.656;2023-02-01T10:30:18;3.00;1.00
35607;DHT22;21729;58.392;15.656;2023-02-01T10:32:48;3.00;1.00
35607;DHT22;21729;58.392;15.656;2023-02-01T10:35:20;3.10;1.00
35607;DHT22;21729;58.392;15.656;2023-02-01T10:37:49;3.10;1.00
35607;DHT22;21729;58.392;15.656;2023-02-01T10:40:18;3.10;1.00
35607;DHT22;21729;58.392;15.656;2023-02-01T10:42:48;3.10;1.00
35607;DHT22;21729;58.392;15.656;2023-02-01T10:45:18;3.20;1.00
35607;DHT22;21729;58.392;15.656;2023-02-01T10:47:49;3.60;1.00
35607;DHT22;21729;58.392;15.656;2023-02-01T10:50:21;3.30;1.00
35607;DHT22;21729;58.392;15.656;2023-02-01T10:52:56;3.40;1.00
35607;DHT22;21729;58.392;15.656;2023-02-01T10:55:34;3.50;1.00
35607;DHT22;21729;58.392;15.656;2023-02-01T10:58:02;3.60;1.00
35607;DHT22;21729;58.392;15.656;2023-02-01T11:00:41;3.70;1.00
35607;DHT22;21729;58.392;15.656;2023-02-01T11:03:33;3.90;1.00
35607;DHT22;21729;58.392;15.656;2023-02-01T11:06:08;3.90;1.00
35607;DHT22;21729;58.392;15.656;2023-02-01T11:08:43;4.30;1.00
35607;DHT22;21729;58.392;15.656;2023-02-01T11:11:11;4.00;1.00
35607;DHT22;21729;58.392;15.656;2023-02-01T11:13:39;4.10;1.00
35607;DHT22;21729;58.392;15.656;2023-02-01T11:16:11;4.10;1.00
35607;DHT22;21729;58.392;15.656;2023-02-01T11:18:40;4.00;1.00
35607;DHT22;21729;58.392;15.656;2023-02-01T11:21:09;4.00;1.00
35607;DHT22;21729;58.392;15.656;2023-02-01T11:23:41;4.00;99.90
35607;DHT22;21729;58.392;15.656;2023-02-01T11:26:12;3.90;1.00
35607;DHT22;21729;58.392;15.656;2023-02-01T11:28:44;3.90;1.40
35607;DHT22;21729;58.392;15.656;2023-02-01T11:31:14;3.90;1.40
35607;DHT22;21729;58.392;15.656;2023-02-01T11:33:48;4.10;1.00
35607;DHT22;21729;58.392;15.656;2023-02-01T11:36:18;4.10;1.00
35607;DHT22;21729;58.392;15.656;2023-02-01T11:38:51;4.20;1.00
35607;DHT22;21729;58.392;15.656;2023-02-01T11:41:22;4.00;99.90
35607;DHT22;21729;58.392;15.656;2023-02-01T11:43:55;3.90;99.90
35607;DHT22;21729;58.392;15.656;2023-02-01T11:46:27;3.80;1.00
35607;DHT22;21729;58.392;15.656;2023-02-01T11:48:57;3.70;1.00
35607;DHT22;21729;58.392;15.656;2023-02-01T11:51:47;3.70;1.00
35607;DHT22;21729;58.392;15.656;2023-02-01T11:54:29;3.70;1.00
35607;DHT22;21729;58.392;15.656;2023-02-01T11:57:09;3.70;1.00
35607;DHT22;21729;58.392;15.656;2023-02-01T12:00:02;3.80;1.00
35607;DHT22;21729;58.392;15.656;2023-02-01T12:02:42;3.80;1.00
35607;DHT22;21729;58.392;15.656;2023-02-01T12:05:49;3.90;1.00
35607;DHT22;21729;58.392;15.656;2023-02-01T12:08:30;3.90;99.90
35607;DHT22;21729;58.392;15.656;2023-02-01T12:11:30;3.80;99.90
35607;DHT22;21729;58.392;15.656;2023-02-01T12:14:09;3.70;99.90
35607;DHT22;21729;58.392;15.656;2023-02-01T12:16:52;3.70;99.90
35607;DHT22;21729;58.392;15.656;2023-02-01T12:19:39;3.80;99.90
35607;DHT22;21729;58.392;15.656;2023-02-01T12:22:22;3.60;99.90
35607;DHT22;21729;58.392;15.656;2023-02-01T12:25:13;3.70;99.90
35607;DHT22;21729;58.392;15.656;2023-02-01T12:28:06;3.70;99.90
35607;DHT22;21729;58.392;15.656;2023-02-01T12:30:47;3.60;99.90
35607;DHT22;21729;58.392;15.656;2023-02-01T12:33:21;3.50;1.00
35607;DHT22;21729;58.392;15.656;2023-02-01T12:36:08;3.30;1.00
35607;DHT22;21729;58.392;15.656;2023-02-01T12:38:46;3.10;1.00
35607;DHT22;21729;58.392;15.656;2023-02-01T12:44:37;2.80;1.00
35607;DHT22;21729;58.392;15.656;2023-02-01T12:47:12;2.60;1.00
35607;DHT22;21729;58.392;15.656;2023-02-01T12:49:48;2.60;1.00
35607;DHT22;21729;58.392;15.656;2023-02-01T12:52:21;2.50;1.00
35607;DHT22;21729;58.392;15.656;2023-02-01T12:54:55;2.50;1.00
35607;DHT22;21729;58.392;15.656;2023-02-01T12:57:27;2.60;1.00
35607;DHT22;21729;58.392;15.656;2023-02-01T13:00:01;2.30;1.00
35607;DHT22;21729;58.392;15.656;2023-02-01T13:02:35;2.30;1.00
35607;DHT22;21729;58.392;15.656;2023-02-01T13:05:16;2.30;1.00
35607;DHT22;21729;58.392;15.656;2023-02-01T13:07:48;2.20;1.00
35607;DHT22;21729;58.392;15.656;2023-02-01T13:10:22;2.10;1.00
35607;DHT22;21729;58.392;15.656;2023-02-01T13:12:54;2.10;1.00
35607;DHT22;21729;58.392;15.656;2023-02-01T13:15:27;2.20;1.00
35607;DHT22;21729;58.392;15.656;2023-02-01T13:17:58;2.10;1.00
35607;DHT22;21729;58.392;15.656;2023-02-01T13:20:31;2.10;1.00
35607;DHT22;21729;58.392;15.656;2023-02-01T13:23:02;2.10;1.00
35607;DHT22;21729;58.392;15.656;2023-02-01T13:25:37;2.00;1.00
35607;DHT22;21729;58.392;15.656;2023-02-01T13:28:11;2.10;1.00
35607;DHT22;21729;58.392;15.656;2023-02-01T13:30:55;1.90;1.00
35607;DHT22;21729;58.392;15.656;2023-02-01T13:33:49;1.80;1.00
35607;DHT22;21729;58.392;15.656;2023-02-01T13:36:45;1.70;1.00
35607;DHT22;21729;58.392;15.656;2023-02-01T13:39:27;1.60;1.00
35607;DHT22;21729;58.392;15.656;2023-02-01T13:42:02;1.60;1.00
35607;DHT22;21729;58.392;15.656;2023-02-01T13:44:34;1.50;1.00
35607;DHT22;21729;58.392;15.656;2023-02-01T13:47:12;1.50;1.00
35607;DHT22;21729;58.392;15.656;2023-02-01T13:49:41;1.50;1.00
35607;DHT22;21729;58.392;15.656;2023-02-01T13:55:29;1.30;1.00
35607;DHT22;21729;58.392;15.656;2023-02-01T13:58:15;1.40;1.00
35607;DHT22;21729;58.392;15.656;2023-02-01T14:00:44;1.30;1.00
35607;DHT22;21729;58.392;15.656;2023-02-01T14:03:16;1.40;1.00
35607;DHT22;21729;58.392;15.656;2023-02-01T14:06:16;1.30;1.00
35607;DHT22;21729;58.392;15.656;2023-02-01T14:09:11;1.30;1.00
35607;DHT22;21729;58.392;15.656;2023-02-01T14:11:41;1.30;1.00
35607;DHT22;21729;58.392;15.656;2023-02-01T14:17:40;1.20;3.60
35607;DHT22;21729;58.392;15.656;2023-02-01T14:23:26;1.10;1.00
35607;DHT22;21729;58.392;15.656;2023-02-01T14:26:18;1.00;9.90
35607;DHT22;21729;58.392;15.656;2023-02-01T14:28:51;1.00;9.50
35607;DHT22;21729;58.392;15.656;2023-02-01T14:31:52;1.00;21.50
35607;DHT22;21729;58.392;15.656;2023-02-01T14:34:31;0.90;25.00
35607;DHT22;21729;58.392;15.656;2023-02-01T14:36:59;1.00;42.30
35607;DHT22;21729;58.392;15.656;2023-02-01T14:39:32;1.00;50.20
35607;DHT22;21729;58.392;15.656;2023-02-01T14:42:03;0.90;55.40
35607;DHT22;21729;58.392;15.656;2023-02-01T14:44:36;0.90;59.80
35607;DHT22;21729;58.392;15.656;2023-02-01T14:47:28;0.90;75.40
35607;DHT22;21729;58.392;15.656;2023-02-01T14:50:16;0.90;76.60
35607;DHT22;21729;58.392;15.656;2023-02-01T14:52:47;0.90;72.20
35607;DHT22;21729;58.392;15.656;2023-02-01T14:55:18;0.80;61.00
35607;DHT22;21729;58.392;15.656;2023-02-01T14:57:50;0.80;70.40
35607;DHT22;21729;58.392;15.656;2023-02-01T15:00:22;0.60;61.60
35607;DHT22;21729;58.392;15.656;2023-02-01T15:02:51;0.60;75.60
35607;DHT22;21729;58.392;15.656;2023-02-01T15:05:29;0.60;79.50
35607;DHT22;21729;58.392;15.656;2023-02-01T15:08:00;0.60;78.30
35607;DHT22;21729;58.392;15.656;2023-02-01T15:10:32;0.60;75.40
35607;DHT22;21729;58.392;15.656;2023-02-01T15:13:00;0.60;73.30
35607;DHT22;21729;58.392;15.656;2023-02-01T15:15:27;0.60;73.10
35607;DHT22;21729;58.392;15.656;2023-02-01T15:17:59;0.50;76.90
35607;DHT22;21729;58.392;15.656;2023-02-01T15:20:29;0.50;74.70
35607;DHT22;21729;58.392;15.656;2023-02-01T15:22:58;0.60;62.00
35607;DHT22;21729;58.392;15.656;2023-02-01T15:25:27;0.60;62.10
35607;DHT22;21729;58.392;15.656;2023-02-01T15:27:55;0.50;76.00
35607;DHT22;21729;58.392;15.656;2023-02-01T15:30:24;0.50;85.80
35607;DHT22;21729;58.392;15.656;2023-02-01T15:33:04;0.40;84.50
35607;DHT22;21729;58.392;15.656;2023-02-01T15:35:36;0.50;95.10
35607;DHT22;21729;58.392;15.656;2023-02-01T15:38:33;0.50;99.90
35607;DHT22;21729;58.392;15.656;2023-02-01T15:41:09;0.50;98.60
35607;DHT22;21729;58.392;15.656;2023-02-01T15:43:41;0.50;99.90
35607;DHT22;21729;58.392;15.656;2023-02-01T15:46:10;0.40;99.90
35607;DHT22;21729;58.392;15.656;2023-02-01T15:48:42;0.70;99.90
35607;DHT22;21729;58.392;15.656;2023-02-01T15:51:17;0.40;99.90
35607;DHT22;21729;58.392;15.656;2023-02-01T15:53:47;0.40;99.90
35607;DHT22;21729;58.392;15.656;2023-02-01T15:56:16;0.40;99.90
35607;DHT22;21729;58.392;15.656;2023-02-01T15:58:51;0.40;99.90
35607;DHT22;21729;58.392;15.656;2023-02-01T16:01:19;0.40;99.90
35607;DHT22;21729;58.392;15.656;2023-02-01T16:03:47;0.40;99.90
35607;DHT22;21729;58.392;15.656;2023-02-01T16:06:29;0.30;99.90
35607;DHT22;21729;58.392;15.656;2023-02-01T16:09:02;0.30;99.90
35607;DHT22;21729;58.392;15.656;2023-02-01T16:11:31;0.30;74.90
35607;DHT22;21729;58.392;15.656;2023-02-01T16:13:59;0.40;92.50
35607;DHT22;21729;58.392;15.656;2023-02-01T16:16:28;0.20;78.10
35607;DHT22;21729;58.392;15.656;2023-02-01T16:18:56;0.30;48.70
35607;DHT22;21729;58.392;15.656;2023-02-01T16:21:23;0.10;46.00
35607;DHT22;21729;58.392;15.656;2023-02-01T16:23:52;0.10;38.20